sensor_id;sensor_type;location;lat;lon;timestamp;P1;durP1;ratioP1;P2;durP2;ratioP2
23119;SDS011;11729;50.836;4.330;2023-03-14T00:01:53;10.13;;;5.68;;
23119;SDS011;11729;50.836;4.330;2023-03-14T00:04:18;13.38;;;5.93;;
23119;SDS011;11729;50.836;4.330;2023-03-14T00:06:44;10.60;;;5.60;;
23119;SDS011;11729;50.836;4.330;2023-03-14T00:09:11;12.85;;;5.75;;
23119;SDS011;11729;50.836;4.330;2023-03-14T00:11:37;12.73;;;5.40;;
23119;SDS011;11729;50.836;4.330;2023-03-14T00:14:03;8.82;;;5.97;;
23119;SDS011;11729;50.836;4.330;2023-03-14T00:16:29;10.40;;;5.32;;
23119;SDS011;11729;50.836;4.330;2023-03-14T00:18:55;14.63;;;6.20;;
23119;SDS011;11729;50.836;4.330;2023-03-14T00:21:20;13.15;;;5.63;;
23119;SDS011;11729;50.836;4.330;2023-03-14T00:23:46;13.90;;;6.00;;
23119;SDS011;11729;50.836;4.330;2023-03-14T00:26:13;13.45;;;5.70;;
23119;SDS011;11729;50.836;4.330;2023-03-14T00:28:41;16.25;;;5.90;;
23119;SDS011;11729;50.836;4.330;2023-03-14T00:31:08;11.00;;;6.15;;
23119;SDS011;11729;50.836;4.330;2023-03-14T00:33:36;13.02;;;6.68;;
23119;SDS011;11729;50.836;4.330;2023-03-14T00:36:03;14.70;;;6.20;;
23119;SDS011;11729;50.836;4.330;2023-03-14T00:38:36;14.52;;;6.40;;
23119;SDS011;11729;50.836;4.330;2023-03-14T00:41:03;16.38;;;6.00;;
23119;SDS011;11729;50.836;4.330;2023-03-14T00:43:40;14.17;;;6.73;;
23119;SDS011;11729;50.836;4.330;2023-03-14T00:46:07;15.55;;;6.45;;
23119;SDS011;11729;50.836;4.330;2023-03-14T00:48:33;11.88;;;6.45;;
23119;SDS011;11729;50.836;4.330;2023-03-14T00:50:59;12.93;;;6.25;;
23119;SDS011;11729;50.836;4.330;2023-03-14T00:53:24;12.88;;;6.55;;
23119;SDS011;11729;50.836;4.330;2023-03-14T00:55:50;12.93;;;6.70;;
23119;SDS011;11729;50.836;4.330;2023-03-14T00:58:16;12.65;;;6.18;;
23119;SDS011;11729;50.836;4.330;2023-03-14T01:00:43;15.80;;;6.60;;
23119;SDS011;11729;50.836;4.330;2023-03-14T01:03:10;16.38;;;5.95;;
23119;SDS011;11729;50.836;4.330;2023-03-14T01:05:37;14.98;;;7.03;;
23119;SDS011;11729;50.836;4.330;2023-03-14T01:08:03;9.27;;;5.93;;
23119;SDS011;11729;50.836;4.330;2023-03-14T01:10:30;22.30;;;6.97;;
23119;SDS011;11729;50.836;4.330;2023-03-14T01:12:56;16.00;;;6.80;;
23119;SDS011;11729;50.836;4.330;2023-03-14T01:15:21;14.48;;;6.95;;
23119;SDS011;11729;50.836;4.330;2023-03-14T01:17:47;12.32;;;6.47;;
23119;SDS011;11729;50.836;4.330;2023-03-14T01:20:14;12.63;;;6.10;;
23119;SDS011;11729;50.836;4.330;2023-03-14T01:22:40;15.88;;;6.50;;
23119;SDS011;11729;50.836;4.330;2023-03-14T01:25:08;17.00;;;7.00;;
23119;SDS011;11729;50.836;4.330;2023-03-14T01:27:36;17.77;;;6.93;;
23119;SDS011;11729;50.836;4.330;2023-03-14T01:30:02;16.15;;;6.30;;
23119;SDS011;11729;50.836;4.330;2023-03-14T01:32:29;14.07;;;6.57;;
23119;SDS011;11729;50.836;4.330;2023-03-14T01:34:55;14.43;;;6.18;;
23119;SDS011;11729;50.836;4.330;2023-03-14T01:37:21;19.20;;;7.22;;
23119;SDS011;11729;50.836;4.330;2023-03-14T01:39:47;11.85;;;6.50;;
23119;SDS011;11729;50.836;4.330;2023-03-14T01:42:13;14.98;;;6.07;;
23119;SDS011;11729;50.836;4.330;2023-03-14T01:45:53;12.75;;;6.15;;
23119;SDS011;11729;50.836;4.330;2023-03-14T01:47:52;15.07;;;5.78;;
23119;SDS011;11729;50.836;4.330;2023-03-14T01:50:18;11.30;;;6.00;;
23119;SDS011;11729;50.836;4.330;2023-03-14T01:52:47;12.13;;;5.70;;
23119;SDS011;11729;50.836;4.330;2023-03-14T01:55:19;9.40;;;5.60;;
23119;SDS011;11729;50.836;4.330;2023-03-14T01:57:52;14.52;;;5.60;;
23119;SDS011;11729;50.836;4.330;2023-03-14T02:00:24;15.13;;;5.82;;
23119;SDS011;11729;50.836;4.330;2023-03-14T02:02:52;9.07;;;5.65;;
23119;SDS011;11729;50.836;4.330;2023-03-14T02:05:22;7.53;;;5.30;;
23119;SDS011;11729;50.836;4.330;2023-03-14T02:07:53;9.57;;;5.00;;
23119;SDS011;11729;50.836;4.330;2023-03-14T02:10:21;9.35;;;5.28;;
23119;SDS011;11729;50.836;4.330;2023-03-14T02:12:49;8.00;;;5.60;;
23119;SDS011;11729;50.836;4.330;2023-03-14T02:15:17;10.20;;;5.57;;
23119;SDS011;11729;50.836;4.330;2023-03-14T02:17:43;11.18;;;5.15;;
23119;SDS011;11729;50.836;4.330;2023-03-14T02:20:13;14.68;;;5.53;;
23119;SDS011;11729;50.836;4.330;2023-03-14T02:22:50;9.90;;;5.45;;
23119;SDS011;11729;50.836;4.330;2023-03-14T02:28:04;9.00;;;5.63;;
23119;SDS011;11729;50.836;4.330;2023-03-14T02:30:30;10.80;;;5.43;;
23119;SDS011;11729;50.836;4.330;2023-03-14T02:33:01;10.88;;;5.88;;
23119;SDS011;11729;50.836;4.330;2023-03-14T02:35:32;8.57;;;5.63;;
23119;SDS011;11729;50.836;4.330;2023-03-14T02:38:21;10.43;;;5.47;;
23119;SDS011;11729;50.836;4.330;2023-03-14T02:40:53;13.05;;;5.78;;
23119;SDS011;11729;50.836;4.330;2023-03-14T02:43:19;9.82;;;5.60;;
23119;SDS011;11729;50.836;4.330;2023-03-14T02:45:46;8.55;;;5.93;;
23119;SDS011;11729;50.836;4.330;2023-03-14T02:48:24;10.10;;;5.97;;
23119;SDS011;11729;50.836;4.330;2023-03-14T02:50:54;19.30;;;6.60;;
23119;SDS011;11729;50.836;4.330;2023-03-14T02:53:32;15.75;;;6.93;;
23119;SDS011;11729;50.836;4.330;2023-03-14T02:55:59;19.05;;;7.75;;
23119;SDS011;11729;50.836;4.330;2023-03-14T02:58:26;19.08;;;8.10;;
23119;SDS011;11729;50.836;4.330;2023-03-14T03:00:52;28.95;;;8.75;;
23119;SDS011;11729;50.836;4.330;2023-03-14T03:03:18;13.95;;;8.55;;
23119;SDS011;11729;50.836;4.330;2023-03-14T03:05:47;24.25;;;8.45;;
23119;SDS011;11729;50.836;4.330;2023-03-14T03:08:16;20.67;;;8.30;;
23119;SDS011;11729;50.836;4.330;2023-03-14T03:10:43;23.67;;;8.57;;
23119;SDS011;11729;50.836;4.330;2023-03-14T03:13:08;18.73;;;8.40;;
23119;SDS011;11729;50.836;4.330;2023-03-14T03:15:34;22.48;;;8.50;;
23119;SDS011;11729;50.836;4.330;2023-03-14T03:17:59;17.38;;;8.63;;
23119;SDS011;11729;50.836;4.330;2023-03-14T03:20:25;19.55;;;8.73;;
23119;SDS011;11729;50.836;4.330;2023-03-14T03:22:51;24.95;;;9.30;;
23119;SDS011;11729;50.836;4.330;2023-03-14T03:25:16;19.55;;;8.50;;
23119;SDS011;11729;50.836;4.330;2023-03-14T03:27:42;22.98;;;9.75;;
23119;SDS011;11729;50.836;4.330;2023-03-14T03:30:09;23.70;;;9.10;;
23119;SDS011;11729;50.836;4.330;2023-03-14T03:32:37;25.42;;;9.38;;
23119;SDS011;11729;50.836;4.330;2023-03-14T03:35:03;21.33;;;8.77;;
23119;SDS011;11729;50.836;4.330;2023-03-14T03:37:33;23.83;;;9.50;;
23119;SDS011;11729;50.836;4.330;2023-03-14T03:39:59;27.77;;;9.70;;
23119;SDS011;11729;50.836;4.330;2023-03-14T03:42:29;22.88;;;9.90;;
23119;SDS011;11729;50.836;4.330;2023-03-14T03:44:54;22.65;;;10.30;;
23119;SDS011;11729;50.836;4.330;2023-03-14T03:47:21;22.15;;;10.55;;
23119;SDS011;11729;50.836;4.330;2023-03-14T03:49:46;24.55;;;10.73;;
23119;SDS011;11729;50.836;4.330;2023-03-14T03:52:12;28.60;;;11.25;;
23119;SDS011;11729;50.836;4.330;2023-03-14T03:54:38;24.42;;;10.93;;
23119;SDS011;11729;50.836;4.330;2023-03-14T03:57:04;18.73;;;11.07;;
23119;SDS011;11729;50.836;4.330;2023-03-14T03:59:30;17.70;;;10.60;;
23119;SDS011;11729;50.836;4.330;2023-03-14T04:01:55;18.40;;;10.48;;
23119;SDS011;11729;50.836;4.330;2023-03-14T04:04:21;17.70;;;9.45;;
23119;SDS011;11729;50.836;4.330;2023-03-14T04:06:47;20.70;;;9.85;;
23119;SDS011;11729;50.836;4.330;2023-03-14T04:09:12;18.25;;;9.75;;
23119;SDS011;11729;50.836;4.330;2023-03-14T04:11:38;19.02;;;9.00;;
23119;SDS011;11729;50.836;4.330;2023-03-14T04:14:04;13.82;;;9.05;;
23119;SDS011;11729;50.836;4.330;2023-03-14T04:16:30;14.30;;;8.73;;
23119;SDS011;11729;50.836;4.330;2023-03-14T04:19:00;26.75;;;9.75;;
23119;SDS011;11729;50.836;4.330;2023-03-14T04:21:26;17.38;;;9.07;;
23119;SDS011;11729;50.836;4.330;2023-03-14T04:23:52;15.93;;;9.60;;
23119;SDS011;11729;50.836;4.330;2023-03-14T04:26:18;17.52;;;9.07;;
23119;SDS011;11729;50.836;4.330;2023-03-14T04:28:43;17.00;;;8.98;;
23119;SDS011;11729;50.836;4.330;2023-03-14T04:31:10;13.18;;;8.40;;
23119;SDS011;11729;50.836;4.330;2023-03-14T04:33:41;14.02;;;7.90;;
23119;SDS011;11729;50.836;4.330;2023-03-14T04:36:07;15.57;;;8.10;;
23119;SDS011;11729;50.836;4.330;2023-03-14T04:38:33;13.15;;;7.82;;
23119;SDS011;11729;50.836;4.330;2023-03-14T04:41:01;11.75;;;6.93;;
23119;SDS011;11729;50.836;4.330;2023-03-14T04:43:27;14.23;;;7.38;;
23119;SDS011;11729;50.836;4.330;2023-03-14T04:45:53;9.10;;;6.93;;
23119;SDS011;11729;50.836;4.330;2023-03-14T04:48:20;9.77;;;6.75;;
23119;SDS011;11729;50.836;4.330;2023-03-14T04:50:46;9.85;;;6.68;;
23119;SDS011;11729;50.836;4.330;2023-03-14T04:53:12;10.32;;;6.25;;
23119;SDS011;11729;50.836;4.330;2023-03-14T04:55:38;8.27;;;6.15;;
23119;SDS011;11729;50.836;4.330;2023-03-14T04:58:03;10.35;;;6.47;;
23119;SDS011;11729;50.836;4.330;2023-03-14T05:00:29;7.63;;;6.07;;
23119;SDS011;11729;50.836;4.330;2023-03-14T05:02:55;7.68;;;6.13;;
23119;SDS011;11729;50.836;4.330;2023-03-14T05:05:20;8.75;;;6.60;;
23119;SDS011;11729;50.836;4.330;2023-03-14T05:07:46;8.27;;;6.43;;
23119;SDS011;11729;50.836;4.330;2023-03-14T05:10:12;10.30;;;7.55;;
23119;SDS011;11729;50.836;4.330;2023-03-14T05:12:38;7.53;;;6.63;;
23119;SDS011;11729;50.836;4.330;2023-03-14T05:15:04;10.35;;;6.88;;
23119;SDS011;11729;50.836;4.330;2023-03-14T05:17:34;15.73;;;6.60;;
23119;SDS011;11729;50.836;4.330;2023-03-14T05:20:00;8.75;;;6.50;;
23119;SDS011;11729;50.836;4.330;2023-03-14T05:22:25;10.02;;;6.90;;
23119;SDS011;11729;50.836;4.330;2023-03-14T05:24:51;11.15;;;6.88;;
23119;SDS011;11729;50.836;4.330;2023-03-14T05:27:22;10.40;;;6.85;;
23119;SDS011;11729;50.836;4.330;2023-03-14T05:29:48;9.75;;;6.85;;
23119;SDS011;11729;50.836;4.330;2023-03-14T05:32:13;8.20;;;7.40;;
23119;SDS011;11729;50.836;4.330;2023-03-14T05:34:39;8.05;;;7.20;;
23119;SDS011;11729;50.836;4.330;2023-03-14T05:37:05;10.50;;;7.55;;
23119;SDS011;11729;50.836;4.330;2023-03-14T05:39:30;8.98;;;7.60;;
23119;SDS011;11729;50.836;4.330;2023-03-14T05:41:56;9.30;;;7.50;;
23119;SDS011;11729;50.836;4.330;2023-03-14T05:44:22;8.32;;;7.53;;
23119;SDS011;11729;50.836;4.330;2023-03-14T05:46:48;8.00;;;7.30;;
23119;SDS011;11729;50.836;4.330;2023-03-14T05:49:14;11.18;;;7.70;;
23119;SDS011;11729;50.836;4.330;2023-03-14T05:51:39;11.02;;;8.05;;
23119;SDS011;11729;50.836;4.330;2023-03-14T05:54:05;11.57;;;8.13;;
23119;SDS011;11729;50.836;4.330;2023-03-14T05:56:31;10.68;;;7.63;;
23119;SDS011;11729;50.836;4.330;2023-03-14T05:58:57;8.32;;;7.50;;
23119;SDS011;11729;50.836;4.330;2023-03-14T06:01:23;8.85;;;7.82;;
23119;SDS011;11729;50.836;4.330;2023-03-14T06:03:49;11.85;;;7.40;;
23119;SDS011;11729;50.836;4.330;2023-03-14T06:06:15;8.73;;;7.60;;
23119;SDS011;11729;50.836;4.330;2023-03-14T06:08:41;8.65;;;7.40;;
23119;SDS011;11729;50.836;4.330;2023-03-14T06:11:07;8.82;;;7.78;;
23119;SDS011;11729;50.836;4.330;2023-03-14T06:13:34;8.02;;;7.32;;
23119;SDS011;11729;50.836;4.330;2023-03-14T06:16:00;9.15;;;7.50;;
23119;SDS011;11729;50.836;4.330;2023-03-14T06:18:25;10.23;;;7.68;;
23119;SDS011;11729;50.836;4.330;2023-03-14T06:20:55;8.45;;;7.57;;
23119;SDS011;11729;50.836;4.330;2023-03-14T06:23:21;4.20;;;4.00;;
23119;SDS011;11729;50.836;4.330;2023-03-14T06:25:47;4.22;;;4.03;;
23119;SDS011;11729;50.836;4.330;2023-03-14T06:28:13;4.30;;;4.10;;
23119;SDS011;11729;50.836;4.330;2023-03-14T06:30:38;4.40;;;4.20;;
23119;SDS011;11729;50.836;4.330;2023-03-14T06:33:04;4.30;;;4.10;;
23119;SDS011;11729;50.836;4.330;2023-03-14T06:35:30;4.10;;;3.90;;
23119;SDS011;11729;50.836;4.330;2023-03-14T06:37:55;4.40;;;4.20;;
23119;SDS011;11729;50.836;4.330;2023-03-14T06:40:21;10.15;;;5.60;;
23119;SDS011;11729;50.836;4.330;2023-03-14T06:42:47;4.30;;;4.10;;
23119;SDS011;11729;50.836;4.330;2023-03-14T06:45:13;4.30;;;4.10;;
23119;SDS011;11729;50.836;4.330;2023-03-14T06:47:39;4.50;;;4.30;;
23119;SDS011;11729;50.836;4.330;2023-03-14T06:50:05;4.55;;;4.35;;
23119;SDS011;11729;50.836;4.330;2023-03-14T06:52:31;4.60;;;4.40;;
23119;SDS011;11729;50.836;4.330;2023-03-14T06:54:57;4.40;;;4.20;;
23119;SDS011;11729;50.836;4.330;2023-03-14T06:57:22;4.40;;;4.20;;
23119;SDS011;11729;50.836;4.330;2023-03-14T06:59:48;4.35;;;4.15;;
23119;SDS011;11729;50.836;4.330;2023-03-14T07:02:14;4.55;;;4.35;;
23119;SDS011;11729;50.836;4.330;2023-03-14T07:04:39;4.30;;;4.10;;
23119;SDS011;11729;50.836;4.330;2023-03-14T07:07:06;4.30;;;4.10;;
23119;SDS011;11729;50.836;4.330;2023-03-14T07:09:32;4.60;;;4.40;;
23119;SDS011;11729;50.836;4.330;2023-03-14T07:11:58;4.70;;;4.50;;
23119;SDS011;11729;50.836;4.330;2023-03-14T07:14:24;4.50;;;4.30;;
23119;SDS011;11729;50.836;4.330;2023-03-14T07:16:50;4.75;;;4.55;;
23119;SDS011;11729;50.836;4.330;2023-03-14T07:19:15;5.00;;;4.80;;
23119;SDS011;11729;50.836;4.330;2023-03-14T07:21:41;5.00;;;4.80;;
23119;SDS011;11729;50.836;4.330;2023-03-14T07:24:06;4.80;;;4.60;;
23119;SDS011;11729;50.836;4.330;2023-03-14T07:26:32;5.00;;;4.80;;
23119;SDS011;11729;50.836;4.330;2023-03-14T07:28:59;4.80;;;4.60;;
23119;SDS011;11729;50.836;4.330;2023-03-14T07:31:28;4.75;;;4.55;;
23119;SDS011;11729;50.836;4.330;2023-03-14T07:33:53;4.82;;;4.63;;
23119;SDS011;11729;50.836;4.330;2023-03-14T07:36:19;4.78;;;4.57;;
23119;SDS011;11729;50.836;4.330;2023-03-14T07:38:45;5.38;;;5.15;;
23119;SDS011;11729;50.836;4.330;2023-03-14T07:41:10;4.70;;;4.50;;
23119;SDS011;11729;50.836;4.330;2023-03-14T07:43:37;4.85;;;4.65;;
23119;SDS011;11729;50.836;4.330;2023-03-14T07:46:02;4.70;;;4.50;;
23119;SDS011;11729;50.836;4.330;2023-03-14T07:48:28;4.70;;;4.50;;
23119;SDS011;11729;50.836;4.330;2023-03-14T07:50:55;4.90;;;4.70;;
23119;SDS011;11729;50.836;4.330;2023-03-14T07:53:21;4.65;;;4.45;;
23119;SDS011;11729;50.836;4.330;2023-03-14T07:55:47;4.80;;;4.60;;
23119;SDS011;11729;50.836;4.330;2023-03-14T07:58:15;7.00;;;6.05;;
23119;SDS011;11729;50.836;4.330;2023-03-14T08:00:40;4.72;;;4.53;;
23119;SDS011;11729;50.836;4.330;2023-03-14T08:03:06;4.70;;;4.50;;
23119;SDS011;11729;50.836;4.330;2023-03-14T08:05:34;4.80;;;4.60;;
23119;SDS011;11729;50.836;4.330;2023-03-14T08:08:00;4.80;;;4.60;;
23119;SDS011;11729;50.836;4.330;2023-03-14T08:10:26;4.90;;;4.70;;
23119;SDS011;11729;50.836;4.330;2023-03-14T08:12:53;4.80;;;4.60;;
23119;SDS011;11729;50.836;4.330;2023-03-14T08:15:20;5.00;;;4.80;;
23119;SDS011;11729;50.836;4.330;2023-03-14T08:17:46;4.90;;;4.70;;
23119;SDS011;11729;50.836;4.330;2023-03-14T08:20:16;4.80;;;4.60;;
23119;SDS011;11729;50.836;4.330;2023-03-14T08:22:42;4.97;;;4.78;;
23119;SDS011;11729;50.836;4.330;2023-03-14T08:25:08;5.00;;;4.80;;
23119;SDS011;11729;50.836;4.330;2023-03-14T08:27:34;5.03;;;4.82;;
23119;SDS011;11729;50.836;4.330;2023-03-14T08:30:02;5.00;;;4.80;;
23119;SDS011;11729;50.836;4.330;2023-03-14T08:32:29;4.97;;;4.78;;
23119;SDS011;11729;50.836;4.330;2023-03-14T08:34:55;5.25;;;5.05;;
23119;SDS011;11729;50.836;4.330;2023-03-14T08:37:21;5.20;;;5.00;;
23119;SDS011;11729;50.836;4.330;2023-03-14T08:39:47;5.00;;;4.80;;
23119;SDS011;11729;50.836;4.330;2023-03-14T08:42:12;4.90;;;4.70;;
23119;SDS011;11729;50.836;4.330;2023-03-14T08:44:38;5.00;;;4.80;;
23119;SDS011;11729;50.836;4.330;2023-03-14T08:47:03;4.90;;;4.70;;
23119;SDS011;11729;50.836;4.330;2023-03-14T08:49:29;4.97;;;4.78;;
23119;SDS011;11729;50.836;4.330;2023-03-14T08:51:55;4.90;;;4.70;;
23119;SDS011;11729;50.836;4.330;2023-03-14T08:54:20;4.88;;;4.68;;
23119;SDS011;11729;50.836;4.330;2023-03-14T08:56:46;5.00;;;4.80;;
23119;SDS011;11729;50.836;4.330;2023-03-14T08:59:12;4.93;;;4.72;;
23119;SDS011;11729;50.836;4.330;2023-03-14T09:01:37;4.88;;;4.68;;
23119;SDS011;11729;50.836;4.330;2023-03-14T09:04:03;5.00;;;4.80;;
23119;SDS011;11729;50.836;4.330;2023-03-14T09:06:29;4.80;;;4.60;;
23119;SDS011;11729;50.836;4.330;2023-03-14T09:08:54;4.70;;;4.50;;
23119;SDS011;11729;50.836;4.330;2023-03-14T09:11:20;4.75;;;4.55;;
23119;SDS011;11729;50.836;4.330;2023-03-14T09:13:47;4.85;;;4.65;;
23119;SDS011;11729;50.836;4.330;2023-03-14T09:16:13;5.10;;;4.90;;
23119;SDS011;11729;50.836;4.330;2023-03-14T09:18:40;4.90;;;4.70;;
23119;SDS011;11729;50.836;4.330;2023-03-14T09:21:05;4.95;;;4.75;;
23119;SDS011;11729;50.836;4.330;2023-03-14T09:23:31;4.90;;;4.70;;
23119;SDS011;11729;50.836;4.330;2023-03-14T09:25:58;4.85;;;4.65;;
23119;SDS011;11729;50.836;4.330;2023-03-14T09:28:24;4.78;;;4.57;;
23119;SDS011;11729;50.836;4.330;2023-03-14T09:30:50;4.90;;;4.70;;
23119;SDS011;11729;50.836;4.330;2023-03-14T09:33:16;4.90;;;4.70;;
23119;SDS011;11729;50.836;4.330;2023-03-14T09:35:43;4.88;;;4.68;;
23119;SDS011;11729;50.836;4.330;2023-03-14T09:38:09;5.60;;;5.30;;
23119;SDS011;11729;50.836;4.330;2023-03-14T09:40:35;4.85;;;4.65;;
23119;SDS011;11729;50.836;4.330;2023-03-14T09:43:01;4.85;;;4.65;;
23119;SDS011;11729;50.836;4.330;2023-03-14T09:45:34;4.95;;;4.75;;
23119;SDS011;11729;50.836;4.330;2023-03-14T09:48:02;5.35;;;5.10;;
23119;SDS011;11729;50.836;4.330;2023-03-14T09:50:40;5.17;;;4.97;;
23119;SDS011;11729;50.836;4.330;2023-03-14T09:53:10;5.00;;;4.80;;
23119;SDS011;11729;50.836;4.330;2023-03-14T09:55:41;5.20;;;5.00;;
23119;SDS011;11729;50.836;4.330;2023-03-14T09:58:19;5.03;;;4.82;;
23119;SDS011;11729;50.836;4.330;2023-03-14T10:00:49;5.10;;;4.90;;
23119;SDS011;11729;50.836;4.330;2023-03-14T10:03:33;6.25;;;5.95;;
23119;SDS011;11729;50.836;4.330;2023-03-14T10:06:00;5.00;;;4.80;;
23119;SDS011;11729;50.836;4.330;2023-03-14T10:08:26;5.10;;;4.90;;
23119;SDS011;11729;50.836;4.330;2023-03-14T10:10:53;5.00;;;4.80;;
23119;SDS011;11729;50.836;4.330;2023-03-14T10:15:58;4.90;;;4.70;;
23119;SDS011;11729;50.836;4.330;2023-03-14T10:18:27;4.80;;;4.60;;
23119;SDS011;11729;50.836;4.330;2023-03-14T10:23:32;5.00;;;4.80;;
23119;SDS011;11729;50.836;4.330;2023-03-14T10:26:15;11.32;;;7.63;;
23119;SDS011;11729;50.836;4.330;2023-03-14T10:29:03;4.80;;;4.60;;
23119;SDS011;11729;50.836;4.330;2023-03-14T10:31:48;5.15;;;4.95;;
23119;SDS011;11729;50.836;4.330;2023-03-14T10:34:20;5.00;;;4.80;;
23119;SDS011;11729;50.836;4.330;2023-03-14T10:36:52;4.90;;;4.70;;
23119;SDS011;11729;50.836;4.330;2023-03-14T10:42:26;5.00;;;4.80;;
23119;SDS011;11729;50.836;4.330;2023-03-14T10:44:55;4.88;;;4.68;;
23119;SDS011;11729;50.836;4.330;2023-03-14T10:47:24;4.82;;;4.63;;
23119;SDS011;11729;50.836;4.330;2023-03-14T10:49:53;4.60;;;4.40;;
23119;SDS011;11729;50.836;4.330;2023-03-14T10:52:21;4.88;;;4.68;;
23119;SDS011;11729;50.836;4.330;2023-03-14T10:54:58;4.90;;;4.70;;
23119;SDS011;11729;50.836;4.330;2023-03-14T10:57:27;5.05;;;4.85;;
23119;SDS011;11729;50.836;4.330;2023-03-14T10:59:53;5.03;;;4.82;;
23119;SDS011;11729;50.836;4.330;2023-03-14T11:07:41;4.90;;;4.70;;
23119;SDS011;11729;50.836;4.330;2023-03-14T11:10:11;11.83;;;5.80;;
23119;SDS011;11729;50.836;4.330;2023-03-14T11:13:08;5.03;;;4.82;;
23119;SDS011;11729;50.836;4.330;2023-03-14T11:26:32;5.10;;;4.90;;
23119;SDS011;11729;50.836;4.330;2023-03-14T11:29:12;5.00;;;4.80;;
23119;SDS011;11729;50.836;4.330;2023-03-14T11:31:53;4.95;;;4.75;;
23119;SDS011;11729;50.836;4.330;2023-03-14T11:34:35;4.90;;;4.70;;
23119;SDS011;11729;50.836;4.330;2023-03-14T11:37:45;5.00;;;4.80;;
23119;SDS011;11729;50.836;4.330;2023-03-14T11:40:17;5.40;;;5.20;;
23119;SDS011;11729;50.836;4.330;2023-03-14T11:45:52;4.80;;;4.60;;
23119;SDS011;11729;50.836;4.330;2023-03-14T11:51:35;5.00;;;4.80;;
23119;SDS011;11729;50.836;4.330;2023-03-14T11:54:26;5.00;;;4.80;;
23119;SDS011;11729;50.836;4.330;2023-03-14T11:57:09;4.93;;;4.72;;
23119;SDS011;11729;50.836;4.330;2023-03-14T11:59:45;5.10;;;4.90;;
23119;SDS011;11729;50.836;4.330;2023-03-14T12:07:34;4.80;;;4.60;;
23119;SDS011;11729;50.836;4.330;2023-03-14T12:10:25;5.03;;;4.82;;
23119;SDS011;11729;50.836;4.330;2023-03-14T12:12:53;5.00;;;4.80;;
23119;SDS011;11729;50.836;4.330;2023-03-14T12:15:19;4.88;;;4.68;;
23119;SDS011;11729;50.836;4.330;2023-03-14T12:17:47;5.00;;;4.80;;
23119;SDS011;11729;50.836;4.330;2023-03-14T12:20:20;4.90;;;4.70;;
23119;SDS011;11729;50.836;4.330;2023-03-14T12:25:20;5.10;;;4.90;;
23119;SDS011;11729;50.836;4.330;2023-03-14T12:30:30;4.88;;;4.68;;
23119;SDS011;11729;50.836;4.330;2023-03-14T12:38:24;4.70;;;4.50;;
23119;SDS011;11729;50.836;4.330;2023-03-14T12:43:49;5.20;;;5.00;;
23119;SDS011;11729;50.836;4.330;2023-03-14T12:46:19;5.00;;;4.80;;
23119;SDS011;11729;50.836;4.330;2023-03-14T12:48:48;4.80;;;4.60;;
23119;SDS011;11729;50.836;4.330;2023-03-14T12:51:57;5.10;;;4.90;;
23119;SDS011;11729;50.836;4.330;2023-03-14T12:59:18;4.90;;;4.70;;
23119;SDS011;11729;50.836;4.330;2023-03-14T13:01:56;4.80;;;4.60;;
23119;SDS011;11729;50.836;4.330;2023-03-14T13:04:43;5.00;;;4.80;;
23119;SDS011;11729;50.836;4.330;2023-03-14T13:07:12;4.80;;;4.60;;
23119;SDS011;11729;50.836;4.330;2023-03-14T13:12:37;7.47;;;6.97;;
23119;SDS011;11729;50.836;4.330;2023-03-14T13:15:21;4.90;;;4.70;;
23119;SDS011;11729;50.836;4.330;2023-03-14T13:17:53;4.90;;;4.70;;
23119;SDS011;11729;50.836;4.330;2023-03-14T13:20:28;4.80;;;4.60;;
23119;SDS011;11729;50.836;4.330;2023-03-14T13:23:01;4.80;;;4.60;;
23119;SDS011;11729;50.836;4.330;2023-03-14T13:25:32;4.80;;;4.60;;
23119;SDS011;11729;50.836;4.330;2023-03-14T13:28:00;4.80;;;4.60;;
23119;SDS011;11729;50.836;4.330;2023-03-14T13:30:27;4.90;;;4.70;;
23119;SDS011;11729;50.836;4.330;2023-03-14T13:33:03;5.00;;;4.80;;
23119;SDS011;11729;50.836;4.330;2023-03-14T13:35:38;4.90;;;4.70;;
23119;SDS011;11729;50.836;4.330;2023-03-14T13:38:31;4.70;;;4.50;;
23119;SDS011;11729;50.836;4.330;2023-03-14T13:40:59;4.80;;;4.60;;
23119;SDS011;11729;50.836;4.330;2023-03-14T13:48:31;4.70;;;4.50;;
23119;SDS011;11729;50.836;4.330;2023-03-14T13:51:01;4.70;;;4.50;;
23119;SDS011;11729;50.836;4.330;2023-03-14T13:53:31;4.80;;;4.60;;
23119;SDS011;11729;50.836;4.330;2023-03-14T13:56:08;4.70;;;4.50;;
23119;SDS011;11729;50.836;4.330;2023-03-14T13:58:35;4.80;;;4.60;;
23119;SDS011;11729;50.836;4.330;2023-03-14T14:03:38;4.72;;;4.53;;
23119;SDS011;11729;50.836;4.330;2023-03-14T14:08:54;5.13;;;4.93;;
23119;SDS011;11729;50.836;4.330;2023-03-14T14:11:22;5.10;;;4.90;;
23119;SDS011;11729;50.836;4.330;2023-03-14T14:13:52;4.82;;;4.63;;
23119;SDS011;11729;50.836;4.330;2023-03-14T14:16:19;4.60;;;4.40;;
23119;SDS011;11729;50.836;4.330;2023-03-14T14:18:50;4.80;;;4.60;;
23119;SDS011;11729;50.836;4.330;2023-03-14T14:21:17;5.00;;;4.80;;
23119;SDS011;11729;50.836;4.330;2023-03-14T14:23:43;4.90;;;4.70;;
23119;SDS011;11729;50.836;4.330;2023-03-14T14:26:13;4.70;;;4.50;;
23119;SDS011;11729;50.836;4.330;2023-03-14T14:28:42;4.90;;;4.70;;
23119;SDS011;11729;50.836;4.330;2023-03-14T14:33:52;4.90;;;4.70;;
23119;SDS011;11729;50.836;4.330;2023-03-14T14:36:22;4.78;;;4.57;;
23119;SDS011;11729;50.836;4.330;2023-03-14T14:38:52;4.63;;;4.43;;
23119;SDS011;11729;50.836;4.330;2023-03-14T14:41:34;4.70;;;4.50;;
23119;SDS011;11729;50.836;4.330;2023-03-14T14:44:04;4.90;;;4.70;;
23119;SDS011;11729;50.836;4.330;2023-03-14T14:46:30;5.00;;;4.80;;
23119;SDS011;11729;50.836;4.330;2023-03-14T14:51:31;5.25;;;5.05;;
23119;SDS011;11729;50.836;4.330;2023-03-14T14:54:03;5.65;;;5.40;;
23119;SDS011;11729;50.836;4.330;2023-03-14T14:56:55;6.22;;;5.93;;
23119;SDS011;11729;50.836;4.330;2023-03-14T14:59:27;5.20;;;5.00;;
23119;SDS011;11729;50.836;4.330;2023-03-14T15:01:57;5.38;;;5.18;;
23119;SDS011;11729;50.836;4.330;2023-03-14T15:04:24;5.50;;;5.30;;
23119;SDS011;11729;50.836;4.330;2023-03-14T15:06:50;5.38;;;5.18;;
23119;SDS011;11729;50.836;4.330;2023-03-14T15:09:17;5.22;;;5.03;;
23119;SDS011;11729;50.836;4.330;2023-03-14T15:11:45;5.05;;;4.85;;
23119;SDS011;11729;50.836;4.330;2023-03-14T15:14:12;5.00;;;4.80;;
23119;SDS011;11729;50.836;4.330;2023-03-14T15:16:38;4.90;;;4.70;;
23119;SDS011;11729;50.836;4.330;2023-03-14T15:19:09;5.07;;;4.88;;
23119;SDS011;11729;50.836;4.330;2023-03-14T15:21:46;4.90;;;4.70;;
23119;SDS011;11729;50.836;4.330;2023-03-14T15:24:12;5.00;;;4.80;;
23119;SDS011;11729;50.836;4.330;2023-03-14T15:26:37;4.80;;;4.60;;
23119;SDS011;11729;50.836;4.330;2023-03-14T15:29:04;4.90;;;4.70;;
23119;SDS011;11729;50.836;4.330;2023-03-14T15:31:38;4.70;;;4.50;;
23119;SDS011;11729;50.836;4.330;2023-03-14T15:34:04;4.90;;;4.70;;
23119;SDS011;11729;50.836;4.330;2023-03-14T15:36:33;4.63;;;4.43;;
23119;SDS011;11729;50.836;4.330;2023-03-14T15:39:00;4.75;;;4.55;;
23119;SDS011;11729;50.836;4.330;2023-03-14T15:41:27;4.85;;;4.65;;
23119;SDS011;11729;50.836;4.330;2023-03-14T15:43:53;4.60;;;4.40;;
23119;SDS011;11729;50.836;4.330;2023-03-14T15:46:19;4.70;;;4.50;;
23119;SDS011;11729;50.836;4.330;2023-03-14T15:48:46;4.75;;;4.55;;
23119;SDS011;11729;50.836;4.330;2023-03-14T15:51:13;4.70;;;4.50;;
23119;SDS011;11729;50.836;4.330;2023-03-14T15:53:40;4.75;;;4.55;;
23119;SDS011;11729;50.836;4.330;2023-03-14T15:56:10;5.07;;;4.88;;
23119;SDS011;11729;50.836;4.330;2023-03-14T15:58:37;4.95;;;4.75;;
23119;SDS011;11729;50.836;4.330;2023-03-14T16:01:05;4.80;;;4.60;;
23119;SDS011;11729;50.836;4.330;2023-03-14T16:05:59;5.57;;;5.28;;
23119;SDS011;11729;50.836;4.330;2023-03-14T16:08:25;4.80;;;4.60;;
23119;SDS011;11729;50.836;4.330;2023-03-14T16:13:19;4.80;;;4.60;;